sensor_id;sensor_type;location;lat;lon;timestamp;P1;durP1;ratioP1;P2;durP2;ratioP2
32633;SDS011;19043;51.012;5.648;2024-01-25T00:02:08;21.02;;;5.22;;
32633;SDS011;19043;51.012;5.648;2024-01-25T00:04:33;28.45;;;6.05;;
32633;SDS011;19043;51.012;5.648;2024-01-25T00:06:59;27.05;;;6.85;;
32633;SDS011;19043;51.012;5.648;2024-01-25T00:09:24;20.60;;;5.67;;
32633;SDS011;19043;51.012;5.648;2024-01-25T00:11:49;28.37;;;5.60;;
32633;SDS011;19043;51.012;5.648;2024-01-25T00:14:14;26.27;;;6.72;;
32633;SDS011;19043;51.012;5.648;2024-01-25T00:16:40;20.02;;;5.25;;
32633;SDS011;19043;51.012;5.648;2024-01-25T00:19:05;21.45;;;5.53;;
32633;SDS011;19043;51.012;5.648;2024-01-25T00:21:30;26.63;;;6.13;;
32633;SDS011;19043;51.012;5.648;2024-01-25T00:23:56;26.17;;;5.47;;
32633;SDS011;19043;51.012;5.648;2024-01-25T00:26:21;16.47;;;4.67;;
32633;SDS011;19043;51.012;5.648;2024-01-25T00:28:46;20.65;;;5.60;;
32633;SDS011;19043;51.012;5.648;2024-01-25T00:31:11;25.33;;;4.47;;
32633;SDS011;19043;51.012;5.648;2024-01-25T00:33:37;27.02;;;5.93;;
32633;SDS011;19043;51.012;5.648;2024-01-25T00:36:02;24.95;;;5.32;;
32633;SDS011;19043;51.012;5.648;2024-01-25T00:38:27;25.00;;;5.72;;
32633;SDS011;19043;51.012;5.648;2024-01-25T00:40:53;23.67;;;6.40;;
32633;SDS011;19043;51.012;5.648;2024-01-25T00:43:18;27.33;;;5.57;;
32633;SDS011;19043;51.012;5.648;2024-01-25T00:45:44;24.98;;;6.57;;
32633;SDS011;19043;51.012;5.648;2024-01-25T00:48:09;21.50;;;5.22;;
32633;SDS011;19043;51.012;5.648;2024-01-25T00:50:35;25.10;;;5.82;;
32633;SDS011;19043;51.012;5.648;2024-01-25T00:53:00;21.02;;;4.90;;
32633;SDS011;19043;51.012;5.648;2024-01-25T00:55:25;22.52;;;4.55;;
32633;SDS011;19043;51.012;5.648;2024-01-25T00:57:51;28.25;;;5.07;;
32633;SDS011;19043;51.012;5.648;2024-01-25T01:00:16;22.48;;;5.70;;
32633;SDS011;19043;51.012;5.648;2024-01-25T01:02:42;23.38;;;5.43;;
32633;SDS011;19043;51.012;5.648;2024-01-25T01:05:08;27.02;;;5.72;;
32633;SDS011;19043;51.012;5.648;2024-01-25T01:07:34;26.27;;;5.40;;
32633;SDS011;19043;51.012;5.648;2024-01-25T01:09:59;19.45;;;5.40;;
32633;SDS011;19043;51.012;5.648;2024-01-25T01:12:24;26.55;;;5.75;;
32633;SDS011;19043;51.012;5.648;2024-01-25T01:14:50;20.10;;;4.88;;
32633;SDS011;19043;51.012;5.648;2024-01-25T01:17:15;26.63;;;5.60;;
32633;SDS011;19043;51.012;5.648;2024-01-25T01:19:40;27.20;;;5.25;;
32633;SDS011;19043;51.012;5.648;2024-01-25T01:22:06;18.55;;;4.82;;
32633;SDS011;19043;51.012;5.648;2024-01-25T01:24:31;19.05;;;5.03;;
32633;SDS011;19043;51.012;5.648;2024-01-25T01:26:56;24.38;;;5.55;;
32633;SDS011;19043;51.012;5.648;2024-01-25T01:29:21;29.00;;;5.03;;
32633;SDS011;19043;51.012;5.648;2024-01-25T01:31:47;20.77;;;5.33;;
32633;SDS011;19043;51.012;5.648;2024-01-25T01:34:12;25.73;;;5.32;;
32633;SDS011;19043;51.012;5.648;2024-01-25T01:36:38;28.45;;;5.97;;
32633;SDS011;19043;51.012;5.648;2024-01-25T01:39:03;33.75;;;6.05;;
32633;SDS011;19043;51.012;5.648;2024-01-25T01:41:29;22.20;;;5.53;;
32633;SDS011;19043;51.012;5.648;2024-01-25T01:43:54;33.47;;;5.80;;
32633;SDS011;19043;51.012;5.648;2024-01-25T01:46:28;28.65;;;6.20;;
32633;SDS011;19043;51.012;5.648;2024-01-25T01:48:56;33.15;;;6.28;;
32633;SDS011;19043;51.012;5.648;2024-01-25T01:51:21;23.75;;;5.10;;
32633;SDS011;19043;51.012;5.648;2024-01-25T01:53:47;23.75;;;4.97;;
32633;SDS011;19043;51.012;5.648;2024-01-25T01:56:12;24.40;;;5.35;;
32633;SDS011;19043;51.012;5.648;2024-01-25T01:58:38;24.67;;;6.20;;
32633;SDS011;19043;51.012;5.648;2024-01-25T02:01:03;17.02;;;4.55;;
32633;SDS011;19043;51.012;5.648;2024-01-25T02:03:29;25.70;;;6.05;;
32633;SDS011;19043;51.012;5.648;2024-01-25T02:05:54;25.02;;;5.07;;
32633;SDS011;19043;51.012;5.648;2024-01-25T02:08:19;29.67;;;5.03;;
32633;SDS011;19043;51.012;5.648;2024-01-25T02:10:45;22.15;;;5.82;;
32633;SDS011;19043;51.012;5.648;2024-01-25T02:13:10;31.75;;;5.63;;
32633;SDS011;19043;51.012;5.648;2024-01-25T02:15:35;30.13;;;6.87;;
32633;SDS011;19043;51.012;5.648;2024-01-25T02:18:00;24.05;;;5.28;;
32633;SDS011;19043;51.012;5.648;2024-01-25T02:20:26;22.73;;;4.82;;
32633;SDS011;19043;51.012;5.648;2024-01-25T02:22:51;20.40;;;4.53;;
32633;SDS011;19043;51.012;5.648;2024-01-25T02:25:16;28.50;;;6.07;;
32633;SDS011;19043;51.012;5.648;2024-01-25T02:27:41;21.52;;;4.70;;
32633;SDS011;19043;51.012;5.648;2024-01-25T02:30:07;27.87;;;5.10;;
32633;SDS011;19043;51.012;5.648;2024-01-25T02:32:32;26.50;;;5.25;;
32633;SDS011;19043;51.012;5.648;2024-01-25T02:34:58;17.05;;;5.38;;
32633;SDS011;19043;51.012;5.648;2024-01-25T02:37:23;17.77;;;4.37;;
32633;SDS011;19043;51.012;5.648;2024-01-25T02:39:48;21.70;;;5.68;;
32633;SDS011;19043;51.012;5.648;2024-01-25T02:42:13;18.35;;;4.93;;
32633;SDS011;19043;51.012;5.648;2024-01-25T02:44:41;24.40;;;6.20;;
32633;SDS011;19043;51.012;5.648;2024-01-25T02:47:07;24.35;;;4.75;;
32633;SDS011;19043;51.012;5.648;2024-01-25T02:49:32;22.70;;;5.93;;
32633;SDS011;19043;51.012;5.648;2024-01-25T02:51:57;17.85;;;4.88;;
32633;SDS011;19043;51.012;5.648;2024-01-25T02:54:22;25.80;;;5.57;;
32633;SDS011;19043;51.012;5.648;2024-01-25T02:56:47;21.90;;;6.30;;
32633;SDS011;19043;51.012;5.648;2024-01-25T02:59:13;16.77;;;4.50;;
32633;SDS011;19043;51.012;5.648;2024-01-25T03:01:39;30.27;;;6.97;;
32633;SDS011;19043;51.012;5.648;2024-01-25T03:04:05;21.52;;;4.72;;
32633;SDS011;19043;51.012;5.648;2024-01-25T03:06:30;34.95;;;5.75;;
32633;SDS011;19043;51.012;5.648;2024-01-25T03:08:56;41.20;;;6.20;;
32633;SDS011;19043;51.012;5.648;2024-01-25T03:11:21;14.88;;;4.88;;
32633;SDS011;19043;51.012;5.648;2024-01-25T03:13:46;23.43;;;5.40;;
32633;SDS011;19043;51.012;5.648;2024-01-25T03:16:11;33.88;;;6.07;;
32633;SDS011;19043;51.012;5.648;2024-01-25T03:18:36;26.53;;;5.43;;
32633;SDS011;19043;51.012;5.648;2024-01-25T03:21:02;19.60;;;5.30;;
32633;SDS011;19043;51.012;5.648;2024-01-25T03:23:27;23.45;;;4.63;;
32633;SDS011;19043;51.012;5.648;2024-01-25T03:25:52;19.30;;;4.13;;
32633;SDS011;19043;51.012;5.648;2024-01-25T03:28:17;24.47;;;5.10;;
32633;SDS011;19043;51.012;5.648;2024-01-25T03:30:43;34.97;;;5.90;;
32633;SDS011;19043;51.012;5.648;2024-01-25T03:33:09;27.43;;;5.17;;
32633;SDS011;19043;51.012;5.648;2024-01-25T03:35:34;19.35;;;4.63;;
32633;SDS011;19043;51.012;5.648;2024-01-25T03:37:59;36.20;;;6.00;;
32633;SDS011;19043;51.012;5.648;2024-01-25T03:40:24;26.48;;;5.32;;
32633;SDS011;19043;51.012;5.648;2024-01-25T03:42:50;22.92;;;4.68;;
32633;SDS011;19043;51.012;5.648;2024-01-25T03:45:15;17.20;;;3.93;;
32633;SDS011;19043;51.012;5.648;2024-01-25T03:47:40;21.50;;;4.53;;
32633;SDS011;19043;51.012;5.648;2024-01-25T03:50:05;16.83;;;3.73;;
32633;SDS011;19043;51.012;5.648;2024-01-25T03:52:31;25.45;;;4.97;;
32633;SDS011;19043;51.012;5.648;2024-01-25T03:54:56;22.08;;;5.55;;
32633;SDS011;19043;51.012;5.648;2024-01-25T03:57:22;19.63;;;5.85;;
32633;SDS011;19043;51.012;5.648;2024-01-25T03:59:47;28.13;;;4.82;;
32633;SDS011;19043;51.012;5.648;2024-01-25T04:02:12;29.63;;;5.97;;
32633;SDS011;19043;51.012;5.648;2024-01-25T04:04:38;25.33;;;4.93;;
32633;SDS011;19043;51.012;5.648;2024-01-25T04:07:03;25.88;;;5.78;;
32633;SDS011;19043;51.012;5.648;2024-01-25T04:09:28;22.70;;;3.83;;
32633;SDS011;19043;51.012;5.648;2024-01-25T04:11:54;27.45;;;5.53;;
32633;SDS011;19043;51.012;5.648;2024-01-25T04:14:19;23.33;;;5.47;;
32633;SDS011;19043;51.012;5.648;2024-01-25T04:16:44;23.67;;;5.37;;
32633;SDS011;19043;51.012;5.648;2024-01-25T04:19:11;21.58;;;4.90;;
32633;SDS011;19043;51.012;5.648;2024-01-25T04:21:37;24.75;;;5.13;;
32633;SDS011;19043;51.012;5.648;2024-01-25T04:24:03;16.75;;;5.20;;
32633;SDS011;19043;51.012;5.648;2024-01-25T04:26:29;25.27;;;5.75;;
32633;SDS011;19043;51.012;5.648;2024-01-25T04:28:54;26.63;;;5.68;;
32633;SDS011;19043;51.012;5.648;2024-01-25T04:31:19;20.43;;;4.63;;
32633;SDS011;19043;51.012;5.648;2024-01-25T04:33:45;23.75;;;4.05;;
32633;SDS011;19043;51.012;5.648;2024-01-25T04:36:10;17.58;;;5.07;;
32633;SDS011;19043;51.012;5.648;2024-01-25T04:38:35;30.70;;;5.10;;
32633;SDS011;19043;51.012;5.648;2024-01-25T04:41:00;20.40;;;4.75;;
32633;SDS011;19043;51.012;5.648;2024-01-25T04:43:26;28.10;;;5.82;;
32633;SDS011;19043;51.012;5.648;2024-01-25T04:45:51;23.60;;;4.85;;
32633;SDS011;19043;51.012;5.648;2024-01-25T04:48:17;25.42;;;5.40;;
32633;SDS011;19043;51.012;5.648;2024-01-25T04:50:42;28.65;;;5.88;;
32633;SDS011;19043;51.012;5.648;2024-01-25T04:53:07;24.77;;;4.43;;
32633;SDS011;19043;51.012;5.648;2024-01-25T04:55:32;27.23;;;4.90;;
32633;SDS011;19043;51.012;5.648;2024-01-25T04:57:58;27.80;;;4.60;;
32633;SDS011;19043;51.012;5.648;2024-01-25T05:00:23;22.10;;;5.22;;
32633;SDS011;19043;51.012;5.648;2024-01-25T05:02:48;33.67;;;5.10;;
32633;SDS011;19043;51.012;5.648;2024-01-25T05:05:14;24.45;;;4.80;;
32633;SDS011;19043;51.012;5.648;2024-01-25T05:07:39;15.48;;;5.28;;
32633;SDS011;19043;51.012;5.648;2024-01-25T05:10:04;22.50;;;5.10;;
32633;SDS011;19043;51.012;5.648;2024-01-25T05:12:30;23.70;;;5.97;;
32633;SDS011;19043;51.012;5.648;2024-01-25T05:14:55;27.75;;;5.45;;
32633;SDS011;19043;51.012;5.648;2024-01-25T05:17:20;25.20;;;4.78;;
32633;SDS011;19043;51.012;5.648;2024-01-25T05:19:46;25.92;;;5.78;;
32633;SDS011;19043;51.012;5.648;2024-01-25T05:22:11;20.52;;;6.15;;
32633;SDS011;19043;51.012;5.648;2024-01-25T05:24:36;24.52;;;6.28;;
32633;SDS011;19043;51.012;5.648;2024-01-25T05:27:02;29.63;;;5.25;;
32633;SDS011;19043;51.012;5.648;2024-01-25T05:29:27;19.63;;;5.18;;
32633;SDS011;19043;51.012;5.648;2024-01-25T05:31:52;31.35;;;6.95;;
32633;SDS011;19043;51.012;5.648;2024-01-25T05:34:18;30.45;;;6.53;;
32633;SDS011;19043;51.012;5.648;2024-01-25T05:36:43;19.67;;;5.25;;
32633;SDS011;19043;51.012;5.648;2024-01-25T05:39:08;21.52;;;5.88;;
32633;SDS011;19043;51.012;5.648;2024-01-25T05:41:33;24.77;;;5.95;;
32633;SDS011;19043;51.012;5.648;2024-01-25T05:43:59;27.13;;;5.40;;
32633;SDS011;19043;51.012;5.648;2024-01-25T05:46:24;30.50;;;6.13;;
32633;SDS011;19043;51.012;5.648;2024-01-25T05:48:49;37.30;;;6.60;;
32633;SDS011;19043;51.012;5.648;2024-01-25T05:51:14;24.70;;;7.72;;
32633;SDS011;19043;51.012;5.648;2024-01-25T05:53:40;24.00;;;6.15;;
32633;SDS011;19043;51.012;5.648;2024-01-25T05:56:05;35.20;;;14.40;;
32633;SDS011;19043;51.012;5.648;2024-01-25T05:58:30;32.97;;;11.23;;
32633;SDS011;19043;51.012;5.648;2024-01-25T06:00:56;23.80;;;7.32;;
32633;SDS011;19043;51.012;5.648;2024-01-25T06:03:21;18.00;;;6.22;;
32633;SDS011;19043;51.012;5.648;2024-01-25T06:05:46;24.98;;;6.80;;
32633;SDS011;19043;51.012;5.648;2024-01-25T06:08:12;26.60;;;5.97;;
32633;SDS011;19043;51.012;5.648;2024-01-25T06:10:37;30.80;;;5.80;;
32633;SDS011;19043;51.012;5.648;2024-01-25T06:13:04;27.13;;;5.68;;
32633;SDS011;19043;51.012;5.648;2024-01-25T06:15:29;17.05;;;4.80;;
32633;SDS011;19043;51.012;5.648;2024-01-25T06:17:54;21.58;;;6.30;;
32633;SDS011;19043;51.012;5.648;2024-01-25T06:20:19;20.25;;;5.82;;
32633;SDS011;19043;51.012;5.648;2024-01-25T06:22:45;21.10;;;5.25;;
32633;SDS011;19043;51.012;5.648;2024-01-25T06:25:10;25.63;;;5.63;;
32633;SDS011;19043;51.012;5.648;2024-01-25T06:27:35;28.08;;;7.10;;
32633;SDS011;19043;51.012;5.648;2024-01-25T06:30:01;28.20;;;6.68;;
32633;SDS011;19043;51.012;5.648;2024-01-25T06:32:26;21.87;;;5.67;;
32633;SDS011;19043;51.012;5.648;2024-01-25T06:34:51;37.50;;;7.65;;
32633;SDS011;19043;51.012;5.648;2024-01-25T06:37:16;28.05;;;5.65;;
32633;SDS011;19043;51.012;5.648;2024-01-25T06:39:43;23.20;;;7.13;;
32633;SDS011;19043;51.012;5.648;2024-01-25T06:42:08;27.88;;;6.60;;
32633;SDS011;19043;51.012;5.648;2024-01-25T06:44:34;21.58;;;6.57;;
32633;SDS011;19043;51.012;5.648;2024-01-25T06:46:59;40.40;;;7.67;;
32633;SDS011;19043;51.012;5.648;2024-01-25T06:49:24;23.83;;;5.97;;
32633;SDS011;19043;51.012;5.648;2024-01-25T06:51:49;31.13;;;6.53;;
32633;SDS011;19043;51.012;5.648;2024-01-25T06:54:15;25.40;;;7.03;;
32633;SDS011;19043;51.012;5.648;2024-01-25T06:56:40;24.67;;;5.97;;
32633;SDS011;19043;51.012;5.648;2024-01-25T06:59:05;26.37;;;8.33;;
32633;SDS011;19043;51.012;5.648;2024-01-25T07:01:30;29.35;;;7.68;;
32633;SDS011;19043;51.012;5.648;2024-01-25T07:03:57;28.42;;;7.60;;
32633;SDS011;19043;51.012;5.648;2024-01-25T07:06:23;27.65;;;7.18;;
32633;SDS011;19043;51.012;5.648;2024-01-25T07:08:48;31.48;;;8.13;;
32633;SDS011;19043;51.012;5.648;2024-01-25T07:11:14;29.45;;;8.07;;
32633;SDS011;19043;51.012;5.648;2024-01-25T07:13:40;21.20;;;7.82;;
32633;SDS011;19043;51.012;5.648;2024-01-25T07:16:05;31.92;;;8.27;;
32633;SDS011;19043;51.012;5.648;2024-01-25T07:18:31;21.88;;;7.55;;
32633;SDS011;19043;51.012;5.648;2024-01-25T07:20:56;30.83;;;8.63;;
32633;SDS011;19043;51.012;5.648;2024-01-25T07:23:21;30.13;;;7.95;;
32633;SDS011;19043;51.012;5.648;2024-01-25T07:25:47;29.92;;;7.93;;
32633;SDS011;19043;51.012;5.648;2024-01-25T07:28:12;18.88;;;7.63;;
32633;SDS011;19043;51.012;5.648;2024-01-25T07:30:38;35.00;;;9.55;;
32633;SDS011;19043;51.012;5.648;2024-01-25T07:33:03;27.90;;;8.52;;
32633;SDS011;19043;51.012;5.648;2024-01-25T07:35:28;37.33;;;8.65;;
32633;SDS011;19043;51.012;5.648;2024-01-25T07:37:53;38.03;;;8.67;;
32633;SDS011;19043;51.012;5.648;2024-01-25T07:40:19;31.37;;;8.10;;
32633;SDS011;19043;51.012;5.648;2024-01-25T07:42:45;25.25;;;9.25;;
32633;SDS011;19043;51.012;5.648;2024-01-25T07:45:12;35.88;;;10.00;;
32633;SDS011;19043;51.012;5.648;2024-01-25T07:47:38;38.63;;;9.52;;
32633;SDS011;19043;51.012;5.648;2024-01-25T07:50:06;33.50;;;10.32;;
32633;SDS011;19043;51.012;5.648;2024-01-25T07:52:31;37.25;;;11.38;;
32633;SDS011;19043;51.012;5.648;2024-01-25T07:54:56;35.90;;;11.43;;
32633;SDS011;19043;51.012;5.648;2024-01-25T07:57:22;44.63;;;12.65;;
32633;SDS011;19043;51.012;5.648;2024-01-25T07:59:47;35.22;;;13.10;;
32633;SDS011;19043;51.012;5.648;2024-01-25T08:02:12;30.50;;;12.30;;
32633;SDS011;19043;51.012;5.648;2024-01-25T08:04:37;27.40;;;10.00;;
32633;SDS011;19043;51.012;5.648;2024-01-25T08:07:03;34.63;;;10.50;;
32633;SDS011;19043;51.012;5.648;2024-01-25T08:09:28;26.42;;;9.93;;
32633;SDS011;19043;51.012;5.648;2024-01-25T08:11:53;35.17;;;10.30;;
32633;SDS011;19043;51.012;5.648;2024-01-25T08:14:18;38.30;;;9.77;;
32633;SDS011;19043;51.012;5.648;2024-01-25T08:16:44;41.55;;;10.05;;
32633;SDS011;19043;51.012;5.648;2024-01-25T08:19:09;32.47;;;10.37;;
32633;SDS011;19043;51.012;5.648;2024-01-25T08:21:34;41.80;;;9.73;;
32633;SDS011;19043;51.012;5.648;2024-01-25T08:24:01;35.83;;;9.85;;
32633;SDS011;19043;51.012;5.648;2024-01-25T08:26:26;32.15;;;10.07;;
32633;SDS011;19043;51.012;5.648;2024-01-25T08:28:51;44.97;;;9.93;;
32633;SDS011;19043;51.012;5.648;2024-01-25T08:31:16;42.47;;;10.27;;
32633;SDS011;19043;51.012;5.648;2024-01-25T08:33:42;32.10;;;9.98;;
32633;SDS011;19043;51.012;5.648;2024-01-25T08:36:09;30.17;;;9.60;;
32633;SDS011;19043;51.012;5.648;2024-01-25T08:38:34;30.75;;;9.05;;
32633;SDS011;19043;51.012;5.648;2024-01-25T08:41:00;40.47;;;9.53;;
32633;SDS011;19043;51.012;5.648;2024-01-25T08:43:25;27.90;;;9.65;;
32633;SDS011;19043;51.012;5.648;2024-01-25T08:45:50;23.92;;;8.77;;
32633;SDS011;19043;51.012;5.648;2024-01-25T08:48:15;27.92;;;8.88;;
32633;SDS011;19043;51.012;5.648;2024-01-25T08:50:41;35.72;;;8.35;;
32633;SDS011;19043;51.012;5.648;2024-01-25T08:53:06;26.55;;;9.30;;
32633;SDS011;19043;51.012;5.648;2024-01-25T08:55:31;22.45;;;7.90;;
32633;SDS011;19043;51.012;5.648;2024-01-25T08:57:57;30.83;;;7.97;;
32633;SDS011;19043;51.012;5.648;2024-01-25T09:00:22;36.67;;;8.50;;
32633;SDS011;19043;51.012;5.648;2024-01-25T09:02:47;19.80;;;5.85;;
32633;SDS011;19043;51.012;5.648;2024-01-25T09:05:13;25.58;;;7.60;;
32633;SDS011;19043;51.012;5.648;2024-01-25T09:07:38;29.75;;;8.43;;
32633;SDS011;19043;51.012;5.648;2024-01-25T09:10:03;26.85;;;7.80;;
32633;SDS011;19043;51.012;5.648;2024-01-25T09:12:29;26.83;;;7.78;;
32633;SDS011;19043;51.012;5.648;2024-01-25T09:14:55;32.85;;;8.55;;
32633;SDS011;19043;51.012;5.648;2024-01-25T09:17:20;39.10;;;10.07;;
32633;SDS011;19043;51.012;5.648;2024-01-25T09:19:48;21.45;;;8.32;;
32633;SDS011;19043;51.012;5.648;2024-01-25T09:22:17;34.55;;;10.38;;
32633;SDS011;19043;51.012;5.648;2024-01-25T09:24:44;30.27;;;9.38;;
32633;SDS011;19043;51.012;5.648;2024-01-25T09:27:09;35.28;;;10.60;;
32633;SDS011;19043;51.012;5.648;2024-01-25T09:29:35;26.63;;;9.65;;
32633;SDS011;19043;51.012;5.648;2024-01-25T09:32:00;36.33;;;10.48;;
32633;SDS011;19043;51.012;5.648;2024-01-25T09:34:25;37.20;;;11.73;;
32633;SDS011;19043;51.012;5.648;2024-01-25T09:36:51;29.40;;;10.40;;
32633;SDS011;19043;51.012;5.648;2024-01-25T09:39:16;28.95;;;10.82;;
32633;SDS011;19043;51.012;5.648;2024-01-25T09:41:42;25.75;;;9.90;;
32633;SDS011;19043;51.012;5.648;2024-01-25T09:44:07;24.00;;;9.55;;
32633;SDS011;19043;51.012;5.648;2024-01-25T09:46:37;25.30;;;10.57;;
32633;SDS011;19043;51.012;5.648;2024-01-25T09:49:02;22.63;;;10.02;;
32633;SDS011;19043;51.012;5.648;2024-01-25T09:51:29;21.55;;;9.48;;
32633;SDS011;19043;51.012;5.648;2024-01-25T09:53:58;28.70;;;10.82;;
32633;SDS011;19043;51.012;5.648;2024-01-25T09:56:25;26.35;;;10.38;;
32633;SDS011;19043;51.012;5.648;2024-01-25T09:58:51;23.85;;;11.23;;
32633;SDS011;19043;51.012;5.648;2024-01-25T10:01:17;23.55;;;11.20;;
32633;SDS011;19043;51.012;5.648;2024-01-25T10:03:42;28.33;;;11.53;;
32633;SDS011;19043;51.012;5.648;2024-01-25T10:06:10;29.63;;;11.40;;
32633;SDS011;19043;51.012;5.648;2024-01-25T10:08:35;27.65;;;11.65;;
32633;SDS011;19043;51.012;5.648;2024-01-25T10:11:01;29.77;;;12.65;;
32633;SDS011;19043;51.012;5.648;2024-01-25T10:13:26;30.20;;;14.10;;
32633;SDS011;19043;51.012;5.648;2024-01-25T10:15:52;32.30;;;13.65;;
32633;SDS011;19043;51.012;5.648;2024-01-25T10:18:17;32.22;;;13.80;;
32633;SDS011;19043;51.012;5.648;2024-01-25T10:20:43;38.95;;;14.73;;
32633;SDS011;19043;51.012;5.648;2024-01-25T10:23:08;40.63;;;15.77;;
32633;SDS011;19043;51.012;5.648;2024-01-25T10:25:36;42.40;;;15.70;;
32633;SDS011;19043;51.012;5.648;2024-01-25T10:28:05;32.08;;;14.93;;
32633;SDS011;19043;51.012;5.648;2024-01-25T10:30:34;37.88;;;15.30;;
32633;SDS011;19043;51.012;5.648;2024-01-25T10:33:00;40.67;;;14.23;;
32633;SDS011;19043;51.012;5.648;2024-01-25T10:35:25;44.35;;;14.68;;
32633;SDS011;19043;51.012;5.648;2024-01-25T10:37:51;41.90;;;15.32;;
32633;SDS011;19043;51.012;5.648;2024-01-25T10:40:17;49.33;;;16.55;;
32633;SDS011;19043;51.012;5.648;2024-01-25T10:42:43;41.22;;;15.95;;
32633;SDS011;19043;51.012;5.648;2024-01-25T10:45:08;52.17;;;16.70;;
32633;SDS011;19043;51.012;5.648;2024-01-25T10:47:34;43.78;;;15.38;;
32633;SDS011;19043;51.012;5.648;2024-01-25T10:50:00;48.65;;;17.60;;
32633;SDS011;19043;51.012;5.648;2024-01-25T10:52:27;42.55;;;16.20;;
32633;SDS011;19043;51.012;5.648;2024-01-25T10:54:52;40.88;;;16.02;;
32633;SDS011;19043;51.012;5.648;2024-01-25T10:57:18;61.00;;;18.15;;
32633;SDS011;19043;51.012;5.648;2024-01-25T10:59:43;44.65;;;16.95;;
32633;SDS011;19043;51.012;5.648;2024-01-25T11:02:09;35.50;;;14.70;;
32633;SDS011;19043;51.012;5.648;2024-01-25T11:04:34;36.47;;;14.55;;
32633;SDS011;19043;51.012;5.648;2024-01-25T11:07:08;37.33;;;15.20;;
32633;SDS011;19043;51.012;5.648;2024-01-25T11:09:35;36.10;;;13.45;;
32633;SDS011;19043;51.012;5.648;2024-01-25T11:12:01;39.83;;;14.73;;
32633;SDS011;19043;51.012;5.648;2024-01-25T11:14:26;39.37;;;13.77;;
32633;SDS011;19043;51.012;5.648;2024-01-25T11:16:51;27.88;;;13.63;;
32633;SDS011;19043;51.012;5.648;2024-01-25T11:19:17;41.58;;;15.07;;
32633;SDS011;19043;51.012;5.648;2024-01-25T11:21:44;39.50;;;14.43;;
32633;SDS011;19043;51.012;5.648;2024-01-25T11:26:38;33.33;;;13.27;;
32633;SDS011;19043;51.012;5.648;2024-01-25T11:29:04;37.78;;;12.98;;
32633;SDS011;19043;51.012;5.648;2024-01-25T11:31:29;29.75;;;14.05;;
32633;SDS011;19043;51.012;5.648;2024-01-25T11:34:00;30.20;;;12.25;;
32633;SDS011;19043;51.012;5.648;2024-01-25T11:36:26;33.78;;;12.10;;
32633;SDS011;19043;51.012;5.648;2024-01-25T11:38:51;37.22;;;12.60;;
32633;SDS011;19043;51.012;5.648;2024-01-25T11:41:16;34.72;;;13.75;;
32633;SDS011;19043;51.012;5.648;2024-01-25T11:43:41;34.25;;;13.07;;
32633;SDS011;19043;51.012;5.648;2024-01-25T11:46:07;33.28;;;12.23;;
32633;SDS011;19043;51.012;5.648;2024-01-25T11:48:33;26.85;;;12.13;;
32633;SDS011;19043;51.012;5.648;2024-01-25T11:50:59;28.35;;;11.93;;
32633;SDS011;19043;51.012;5.648;2024-01-25T11:53:24;26.48;;;11.70;;
32633;SDS011;19043;51.012;5.648;2024-01-25T11:55:51;37.20;;;12.90;;
32633;SDS011;19043;51.012;5.648;2024-01-25T11:58:17;26.35;;;11.02;;
32633;SDS011;19043;51.012;5.648;2024-01-25T12:00:42;31.85;;;11.32;;
32633;SDS011;19043;51.012;5.648;2024-01-25T12:03:07;26.60;;;9.88;;
32633;SDS011;19043;51.012;5.648;2024-01-25T12:05:33;31.17;;;10.98;;
32633;SDS011;19043;51.012;5.648;2024-01-25T12:07:59;30.20;;;10.98;;
32633;SDS011;19043;51.012;5.648;2024-01-25T12:10:24;31.85;;;11.85;;
32633;SDS011;19043;51.012;5.648;2024-01-25T12:12:51;30.52;;;11.13;;
32633;SDS011;19043;51.012;5.648;2024-01-25T12:15:16;28.17;;;10.40;;
32633;SDS011;19043;51.012;5.648;2024-01-25T12:17:41;25.58;;;10.30;;
32633;SDS011;19043;51.012;5.648;2024-01-25T12:20:07;31.25;;;10.80;;
32633;SDS011;19043;51.012;5.648;2024-01-25T12:22:38;25.15;;;9.50;;
32633;SDS011;19043;51.012;5.648;2024-01-25T12:25:06;29.80;;;10.73;;
32633;SDS011;19043;51.012;5.648;2024-01-25T12:27:32;25.33;;;10.07;;
32633;SDS011;19043;51.012;5.648;2024-01-25T12:29:57;27.00;;;9.25;;
32633;SDS011;19043;51.012;5.648;2024-01-25T12:32:22;23.23;;;9.48;;
32633;SDS011;19043;51.012;5.648;2024-01-25T12:34:57;28.05;;;9.45;;
32633;SDS011;19043;51.012;5.648;2024-01-25T12:37:23;22.63;;;8.63;;
32633;SDS011;19043;51.012;5.648;2024-01-25T12:39:49;22.52;;;9.05;;
32633;SDS011;19043;51.012;5.648;2024-01-25T12:42:15;26.75;;;9.32;;
32633;SDS011;19043;51.012;5.648;2024-01-25T12:44:40;26.40;;;9.52;;
32633;SDS011;19043;51.012;5.648;2024-01-25T12:47:06;28.17;;;8.07;;
32633;SDS011;19043;51.012;5.648;2024-01-25T12:49:34;23.08;;;7.95;;
32633;SDS011;19043;51.012;5.648;2024-01-25T12:51:59;24.77;;;8.77;;
32633;SDS011;19043;51.012;5.648;2024-01-25T12:54:24;24.02;;;6.82;;
32633;SDS011;19043;51.012;5.648;2024-01-25T12:56:50;27.67;;;8.38;;
32633;SDS011;19043;51.012;5.648;2024-01-25T12:59:15;21.38;;;7.18;;
32633;SDS011;19043;51.012;5.648;2024-01-25T13:01:41;23.65;;;6.93;;
32633;SDS011;19043;51.012;5.648;2024-01-25T13:04:06;26.80;;;8.25;;
32633;SDS011;19043;51.012;5.648;2024-01-25T13:06:31;25.00;;;6.68;;
32633;SDS011;19043;51.012;5.648;2024-01-25T13:08:57;24.33;;;6.53;;
32633;SDS011;19043;51.012;5.648;2024-01-25T13:11:22;20.38;;;6.10;;
32633;SDS011;19043;51.012;5.648;2024-01-25T13:13:47;12.80;;;5.30;;
32633;SDS011;19043;51.012;5.648;2024-01-25T13:16:12;21.95;;;6.57;;
32633;SDS011;19043;51.012;5.648;2024-01-25T13:18:38;17.53;;;4.97;;
32633;SDS011;19043;51.012;5.648;2024-01-25T13:21:03;19.40;;;5.57;;
32633;SDS011;19043;51.012;5.648;2024-01-25T13:23:28;19.67;;;6.03;;
32633;SDS011;19043;51.012;5.648;2024-01-25T13:25:53;18.33;;;5.22;;
32633;SDS011;19043;51.012;5.648;2024-01-25T13:28:19;21.98;;;4.85;;
32633;SDS011;19043;51.012;5.648;2024-01-25T13:30:44;16.60;;;5.00;;
32633;SDS011;19043;51.012;5.648;2024-01-25T13:33:09;21.90;;;5.40;;
32633;SDS011;19043;51.012;5.648;2024-01-25T13:35:34;14.27;;;4.93;;
32633;SDS011;19043;51.012;5.648;2024-01-25T13:38:00;14.50;;;5.17;;
32633;SDS011;19043;51.012;5.648;2024-01-25T13:40:26;17.15;;;4.32;;
32633;SDS011;19043;51.012;5.648;2024-01-25T13:42:52;14.65;;;4.13;;
32633;SDS011;19043;51.012;5.648;2024-01-25T13:45:17;14.18;;;4.57;;
32633;SDS011;19043;51.012;5.648;2024-01-25T13:47:42;18.30;;;4.82;;
32633;SDS011;19043;51.012;5.648;2024-01-25T13:50:08;23.13;;;5.82;;
32633;SDS011;19043;51.012;5.648;2024-01-25T13:52:33;17.05;;;5.68;;
32633;SDS011;19043;51.012;5.648;2024-01-25T13:54:59;15.80;;;4.97;;
32633;SDS011;19043;51.012;5.648;2024-01-25T13:57:24;19.40;;;5.40;;
32633;SDS011;19043;51.012;5.648;2024-01-25T13:59:49;16.95;;;4.95;;
32633;SDS011;19043;51.012;5.648;2024-01-25T14:02:15;14.63;;;4.10;;
32633;SDS011;19043;51.012;5.648;2024-01-25T14:04:40;15.90;;;5.13;;
32633;SDS011;19043;51.012;5.648;2024-01-25T14:07:06;17.45;;;4.88;;
32633;SDS011;19043;51.012;5.648;2024-01-25T14:09:31;15.88;;;5.40;;
32633;SDS011;19043;51.012;5.648;2024-01-25T14:11:56;22.73;;;5.07;;
32633;SDS011;19043;51.012;5.648;2024-01-25T14:14:21;14.70;;;5.13;;
32633;SDS011;19043;51.012;5.648;2024-01-25T14:16:47;14.68;;;4.38;;
32633;SDS011;19043;51.012;5.648;2024-01-25T14:19:12;13.20;;;4.53;;
32633;SDS011;19043;51.012;5.648;2024-01-25T14:21:37;18.63;;;4.82;;
32633;SDS011;19043;51.012;5.648;2024-01-25T14:24:02;18.33;;;4.32;;